Time;durP1;ratioP1;P1;durP2;ratioP2;P2;SDS_P1;SDS_P2;PMS_P1;PMS_P2;Temp;Humidity;BMP_temperature;BMP_pressure;BME280_temperature;BME280_humidity;BME280_pressure;Samples;Min_cycle;Max_cycle;Signal;HPM_P1;HPM_P2
2021/01/14 00:00:33;;;;;;;16.53;12.17;;;;;;;-1.04;61.40;98946.48;1672093;84;21220;-91
2021/01/14 00:03:08;;;;;;;15.20;10.83;;;;;;;-1.05;61.54;98933.89;1667329;84;21254;-89
2021/01/14 00:05:36;;;;;;;17.20;11.60;;;;;;;-1.06;61.81;98937.47;1633135;86;21105;-90
2021/01/14 00:08:05;;;;;;;11.63;9.00;;;;;;;-1.03;61.96;98929.83;1645845;85;21336;-91
2021/01/14 00:10:36;;;;;;;11.70;9.40;;;;;;;-1.05;61.97;98933.08;1645712;86;21205;-87
2021/01/14 00:13:06;;;;;;;12.67;9.50;;;;;;;-0.99;61.91;98931.17;1645645;86;21666;-90
2021/01/14 00:15:35;;;;;;;10.20;8.87;;;;;;;-1.01;61.65;98931.80;1643518;85;21375;-89
2021/01/14 00:18:03;;;;;;;8.73;6.47;;;;;;;-0.99;61.53;98929.86;1647292;85;22682;-91
2021/01/14 00:20:30;;;;;;;11.67;8.77;;;;;;;-1.04;61.67;98924.25;1636328;85;21255;-89
2021/01/14 00:22:57;;;;;;;8.67;7.37;;;;;;;-1.07;61.58;98926.69;1696329;83;21331;-88
2021/01/14 00:25:25;;;;;;;10.57;9.10;;;;;;;-1.16;62.14;98921.53;1669323;85;21600;-88
2021/01/14 00:27:52;;;;;;;12.57;8.90;;;;;;;-1.14;62.01;98920.40;1662561;85;21861;-89
2021/01/14 00:30:30;;;;;;;10.23;8.17;;;;;;;-1.16;62.03;98928.88;1666528;84;21792;-89
2021/01/14 00:33:00;;;;;;;12.23;9.43;;;;;;;-1.11;62.08;98925.34;1667525;84;21192;-89
2021/01/14 00:35:28;;;;;;;12.03;8.70;;;;;;;-1.11;61.91;98926.65;1674997;84;21376;-90
2021/01/14 00:37:56;;;;;;;13.10;10.07;;;;;;;-1.11;61.87;98928.42;1648294;86;21685;-89
2021/01/14 00:40:31;;;;;;;11.67;8.70;;;;;;;-1.10;61.90;98926.97;1668967;84;21206;-89
2021/01/14 00:43:08;;;;;;;13.40;9.80;;;;;;;-1.08;61.87;98926.34;1668319;84;21216;-89
2021/01/14 00:45:35;;;;;;;12.30;8.80;;;;;;;-1.07;61.79;98924.07;1679957;84;21357;-89
2021/01/14 00:48:05;;;;;;;11.03;9.23;;;;;;;-1.08;61.94;98925.52;1671970;85;21228;-90
2021/01/14 00:50:32;;;;;;;13.23;10.50;;;;;;;-1.09;61.88;98916.86;1670172;85;21718;-88
2021/01/14 00:52:59;;;;;;;13.43;9.83;;;;;;;-1.07;62.01;98923.25;1677475;85;21184;-89
2021/01/14 00:55:28;;;;;;;13.83;9.60;;;;;;;-1.08;62.13;98918.48;1687423;84;21200;-90
2021/01/14 00:57:56;;;;;;;14.97;10.00;;;;;;;-1.05;62.18;98922.12;1684420;84;21203;-88
2021/01/14 01:00:23;;;;;;;13.40;9.63;;;;;;;-1.04;62.22;98923.75;1674389;84;21198;-89
2021/01/14 01:02:52;;;;;;;10.37;7.17;;;;;;;-0.96;62.14;98931.34;1668283;84;21188;-89
2021/01/14 01:05:20;;;;;;;15.33;10.53;;;;;;;-1.00;62.16;98932.13;1675335;83;21584;-88
2021/01/14 01:07:53;;;;;;;13.30;10.00;;;;;;;-1.03;62.19;98925.41;1676745;84;21172;-89
2021/01/14 01:10:20;;;;;;;14.47;10.77;;;;;;;-1.07;62.52;98927.99;1671922;84;21215;-89
2021/01/14 01:12:56;;;;;;;14.40;9.90;;;;;;;-1.05;62.44;98937.00;1673460;84;21354;-87
2021/01/14 01:15:25;;;;;;;17.50;11.40;;;;;;;-1.08;62.62;98926.83;1672023;84;21960;-92
2021/01/14 01:17:54;;;;;;;13.47;9.77;;;;;;;-1.08;62.59;98925.02;1664672;84;21298;-92
2021/01/14 01:20:33;;;;;;;10.80;7.73;;;;;;;-1.09;62.55;98923.86;1693817;80;21200;-89
2021/01/14 01:25:58;;;;;;;14.93;9.63;;;;;;;-1.08;62.68;98925.02;1817570;77;23274;-93
2021/01/14 01:28:29;;;;;;;15.77;10.87;;;;;;;-1.18;62.97;98939.48;1808511;78;21163;-90
2021/01/14 01:30:56;;;;;;;15.03;11.37;;;;;;;-1.16;63.02;98937.22;1779465;78;21598;-92
2021/01/14 01:33:27;;;;;;;16.77;11.53;;;;;;;-1.16;63.07;98932.80;1820186;78;21208;-89
2021/01/14 01:35:55;;;;;;;14.13;10.60;;;;;;;-1.12;62.99;98942.48;1813965;76;21069;-86
2021/01/14 01:38:22;;;;;;;16.23;12.67;;;;;;;-1.13;63.11;98940.36;1797365;78;21272;-86
2021/01/14 01:41:00;;;;;;;18.17;13.07;;;;;;;-1.16;63.22;98938.52;1780449;77;21237;-87
2021/01/14 01:43:30;;;;;;;15.50;11.17;;;;;;;-1.16;63.48;98939.34;1787551;77;21337;-86
2021/01/14 01:45:56;;;;;;;14.23;11.10;;;;;;;-1.14;63.32;98941.31;1773607;78;21492;-87
2021/01/14 01:48:23;;;;;;;;;;;;;;;-1.15;63.34;98944.89;1773125;77;21246;-86
2021/01/14 01:50:58;;;;;;;15.93;11.53;;;;;;;-1.20;63.57;98944.03;1788941;78;20156;-85
2021/01/14 01:53:25;;;;;;;15.23;10.40;;;;;;;-1.20;63.56;98940.61;1757574;81;21320;-85
2021/01/14 01:55:52;;;;;;;15.80;11.07;;;;;;;-1.20;63.85;98941.91;1730336;81;21206;-87
2021/01/14 01:58:23;;;;;;;17.97;12.27;;;;;;;-1.16;63.58;98941.95;1746851;81;21323;-88
2021/01/14 02:00:50;;;;;;;17.50;11.57;;;;;;;-1.17;63.56;98938.98;1742695;81;21207;-89
2021/01/14 02:03:20;;;;;;;16.57;11.03;;;;;;;-1.13;63.24;98943.44;1746775;82;21211;-87
2021/01/14 02:05:49;;;;;;;22.60;13.17;;;;;;;-1.19;63.24;98948.77;1708982;82;22017;-89
2021/01/14 02:08:35;;;;;;;15.67;11.37;;;;;;;-1.18;63.23;98941.28;1665372;85;21154;-88
2021/01/14 02:11:11;;;;;;;17.93;12.97;;;;;;;-1.23;63.48;98939.58;1691143;83;21702;-88
2021/01/14 02:14:17;;;;;;;22.15;14.40;;;;;;;-1.30;63.51;98942.44;1680025;83;21181;-87
2021/01/14 02:17:28;;;;;;;21.73;14.90;;;;;;;-1.22;63.67;98942.55;1764536;77;23019;-93
2021/01/14 02:20:09;;;;;;;18.97;12.50;;;;;;;-1.24;63.65;98952.33;1743852;79;21174;-93
2021/01/14 02:23:06;;;;;;;17.10;12.67;;;;;;;-1.22;63.51;98946.47;1705558;82;21725;-89
2021/01/14 02:25:53;;;;;;;18.97;13.23;;;;;;;-1.29;63.61;98952.75;1677169;83;22158;-91
2021/01/14 02:28:29;;;;;;;17.57;13.13;;;;;;;-1.34;63.88;98947.63;1714484;82;21161;-91
2021/01/14 02:30:57;;;;;;;19.33;12.80;;;;;;;-1.35;64.03;98953.84;1692888;83;21443;-90
2021/01/14 02:33:24;;;;;;;17.83;13.17;;;;;;;-1.39;64.08;98955.92;1730561;78;21219;-89
2021/01/14 02:35:53;;;;;;;18.00;12.17;;;;;;;-1.36;64.05;98951.69;1707159;82;21208;-90
2021/01/14 02:38:22;;;;;;;16.80;12.53;;;;;;;-1.37;64.31;98956.10;1677826;85;21199;-88
2021/01/14 02:40:53;;;;;;;17.70;13.63;;;;;;;-1.30;64.21;98953.74;1654332;85;21349;-91
2021/01/14 02:43:28;;;;;;;15.27;11.43;;;;;;;-1.26;64.14;98950.32;1658108;85;21331;-93
2021/01/14 02:45:59;;;;;;;18.47;13.33;;;;;;;-1.14;63.84;98948.34;1676593;85;21663;-91
2021/01/14 02:48:42;;;;;;;19.60;12.87;;;;;;;-1.11;63.70;98942.34;1642508;86;21234;-92
2021/01/14 02:51:20;;;;;;;17.30;12.83;;;;;;;-1.06;63.66;98935.34;1667758;84;21349;-90
2021/01/14 02:53:49;;;;;;;23.95;16.07;;;;;;;-1.05;63.58;98931.28;1673978;85;21207;-92
2021/01/14 02:56:20;;;;;;;19.40;13.63;;;;;;;-1.09;63.48;98928.63;1666697;84;21213;-89
2021/01/14 02:59:17;;;;;;;25.10;16.77;;;;;;;-1.10;63.55;98921.73;1789918;78;23099;-88
2021/01/14 03:01:48;;;;;;;27.03;16.50;;;;;;;-1.23;63.71;98929.94;1748911;80;21208;-86
2021/01/14 03:04:15;;;;;;;24.70;16.37;;;;;;;-1.21;63.84;98925.38;1738099;81;21227;-85
2021/01/14 03:06:42;;;;;;;20.93;14.20;;;;;;;-1.17;63.78;98929.83;1697399;80;21290;-86
2021/01/14 03:09:10;;;;;;;20.77;14.47;;;;;;;-1.12;63.72;98930.72;1681850;84;21195;-87
2021/01/14 03:11:38;;;;;;;19.07;15.23;;;;;;;-1.11;63.56;98930.58;1684181;84;21220;-86
2021/01/14 03:14:05;;;;;;;20.60;15.43;;;;;;;-1.11;63.52;98927.11;1681582;84;21136;-87
2021/01/14 03:16:39;;;;;;;21.40;14.63;;;;;;;-1.10;63.59;98928.28;1683194;84;21398;-87
2021/01/14 03:19:07;;;;;;;20.83;15.30;;;;;;;-1.14;63.56;98925.63;1692688;84;21514;-88
2021/01/14 03:21:38;;;;;;;23.43;16.23;;;;;;;-1.17;63.61;98931.14;1686586;83;21221;-89
2021/01/14 03:24:07;;;;;;;25.90;17.60;;;;;;;-1.22;63.70;98932.09;1678022;84;21495;-91
2021/01/14 03:26:37;;;;;;;23.67;16.13;;;;;;;-1.23;63.82;98933.86;1683164;84;21817;-90
2021/01/14 03:29:05;;;;;;;24.43;16.40;;;;;;;-2.46;63.82;98724.83;1656922;85;21203;-90
2021/01/14 03:31:32;;;;;;;21.90;16.60;;;;;;;-1.09;63.60;98932.55;1659507;85;21198;-88
2021/01/14 03:34:01;;;;;;;23.83;16.73;;;;;;;-1.02;63.42;98934.07;1655881;85;21167;-89
2021/01/14 03:36:32;;;;;;;22.13;16.53;;;;;;;-1.00;63.23;98925.13;1640219;86;21245;-91
2021/01/14 03:39:00;;;;;;;21.67;15.67;;;;;;;-0.92;63.10;98934.00;1669227;83;21195;-90
2021/01/14 03:41:32;;;;;;;25.27;16.53;;;;;;;-0.89;63.09;98938.94;1688937;83;21206;-90
2021/01/14 03:44:00;;;;;;;22.77;15.80;;;;;;;-0.87;62.99;98927.84;1685499;83;21199;-89
2021/01/14 03:46:31;;;;;;;24.80;16.60;;;;;;;-0.88;63.03;98932.26;1670301;84;21276;-90
2021/01/14 03:48:58;;;;;;;23.30;16.77;;;;;;;-0.85;62.88;98940.28;1680579;84;21198;-90
2021/01/14 03:51:26;;;;;;;25.30;16.80;;;;;;;-0.85;62.90;98938.97;1694911;83;21757;-91
2021/01/14 03:53:54;;;;;;;22.30;15.90;;;;;;;-0.78;62.75;98943.95;1659032;85;21249;-90
2021/01/14 03:56:22;;;;;;;25.47;16.97;;;;;;;-0.82;62.88;98939.50;1681650;84;21202;-91
2021/01/14 03:58:50;;;;;;;24.63;17.57;;;;;;;-0.79;62.71;98942.33;1672658;83;21440;-89
2021/01/14 04:01:22;;;;;;;22.90;15.97;;;;;;;-0.84;62.67;98939.33;1656063;85;21642;-91
2021/01/14 04:03:50;;;;;;;26.20;18.47;;;;;;;-0.80;62.62;98938.05;1692261;83;21211;-90
2021/01/14 04:06:20;;;;;;;21.60;15.90;;;;;;;-0.83;62.75;98935.72;1679140;83;21066;-95
2021/01/14 04:08:48;;;;;;;21.60;16.17;;;;;;;-0.76;62.71;98930.73;1669191;85;21199;-89
2021/01/14 04:11:20;;;;;;;23.43;17.00;;;;;;;-0.78;62.45;98929.56;1677277;84;21200;-94
2021/01/14 04:13:49;;;;;;;29.03;17.70;;;;;;;-0.75;62.24;98922.73;1708739;83;21219;-89
2021/01/14 04:16:18;;;;;;;24.70;18.57;;;;;;;-0.73;62.21;98925.20;1711520;78;21505;-91
2021/01/14 04:18:46;;;;;;;22.10;16.50;;;;;;;-0.72;62.22;98911.13;1705433;80;21159;-91
2021/01/14 04:21:20;;;;;;;20.87;15.13;;;;;;;-0.68;62.22;98920.31;1686865;78;21167;-91
2021/01/14 04:23:49;;;;;;;18.43;14.17;;;;;;;-0.69;62.24;98922.12;1701736;78;21141;-88
2021/01/14 04:26:18;;;;;;;26.13;17.40;;;;;;;-0.77;62.41;98932.53;1685471;78;21179;-90
2021/01/14 04:28:56;;;;;;;24.03;16.37;;;;;;;-0.95;62.71;98940.36;1717412;78;21108;-89
2021/01/14 04:31:30;;;;;;;28.20;18.67;;;;;;;-1.12;63.31;98935.45;1681950;79;21218;-88
2021/01/14 04:34:04;;;;;;;25.30;16.13;;;;;;;-1.28;64.04;98940.03;1688810;79;21199;-93
2021/01/14 04:36:34;;;;;;;27.40;18.97;;;;;;;-1.39;64.34;98939.75;1672375;81;21237;-92
2021/01/14 04:39:03;;;;;;;27.23;17.80;;;;;;;-1.39;64.49;98938.93;1652009;81;21182;-93
2021/01/14 04:41:45;;;;;;;30.40;20.57;;;;;;;-1.41;64.53;98941.69;1681426;80;21195;-93
2021/01/14 04:44:29;;;;;;;25.47;17.80;;;;;;;-1.35;64.42;98944.20;1650914;85;21335;-94
2021/01/14 04:47:23;;;;;;;27.67;18.02;;;;;;;-1.30;64.49;98943.74;1677951;85;21251;-94
2021/01/14 04:50:13;;;;;;;27.40;18.90;;;;;;;-1.25;64.23;98953.28;1646002;85;21206;-94
2021/01/14 04:52:48;;;;;;;28.40;19.17;;;;;;;-1.21;64.15;98946.30;1667884;81;21198;-94
2021/01/14 04:55:51;;;;;;;32.87;20.93;;;;;;;-1.23;64.25;98944.81;1646251;85;21164;-95
2021/01/14 04:58:27;;;;;;;28.13;19.77;;;;;;;-1.15;64.17;98951.42;1666811;84;21165;-94
2021/01/14 05:01:27;;;;;;;32.43;20.17;;;;;;;-1.09;64.01;98940.86;1673777;80;21272;-95
2021/01/14 05:04:33;;;;;;;29.93;17.83;;;;;;;-1.08;63.70;98938.59;1631498;86;21359;-95
2021/01/14 05:07:05;;;;;;;31.87;19.80;;;;;;;-1.09;63.84;98935.63;1627446;85;21159;-92
2021/01/14 05:09:41;;;;;;;32.80;21.30;;;;;;;-1.10;63.84;98934.81;1643040;87;21223;-94
2021/01/14 05:12:14;;;;;;;37.40;23.90;;;;;;;-1.09;63.86;98939.09;1644156;86;21237;-91
2021/01/14 05:14:41;;;;;;;34.13;20.63;;;;;;;-1.03;63.73;98941.59;1593157;87;21206;-90
2021/01/14 05:17:12;;;;;;;36.00;22.93;;;;;;;-1.01;63.62;98929.20;1596309;87;21360;-91
2021/01/14 05:19:40;;;;;;;34.03;22.47;;;;;;;-0.94;63.36;98934.17;1605494;86;21153;-90
2021/01/14 05:22:09;;;;;;;39.60;22.80;;;;;;;-0.93;63.32;98931.06;1648083;86;21207;-90
2021/01/14 05:24:36;;;;;;;41.23;21.90;;;;;;;-0.86;63.22;98934.23;1631491;86;21272;-90
2021/01/14 05:27:24;;;;;;;35.07;22.23;;;;;;;-0.86;63.26;98928.19;1636391;87;21179;-91
2021/01/14 05:30:07;;;;;;;36.80;22.80;;;;;;;-0.80;63.07;98939.36;1640088;87;21221;-92
2021/01/14 05:32:46;;;;;;;37.57;24.03;;;;;;;-0.82;63.13;98932.15;1630406;87;21320;-95
2021/01/14 05:35:28;;;;;;;24.97;17.07;;;;;;;-0.78;63.10;98934.80;1616192;87;21205;-95
2021/01/14 05:38:00;;;;;;;29.17;19.07;;;;;;;-0.75;63.05;98935.81;1570836;88;21266;-90
2021/01/14 05:40:25;;;;;;;27.37;17.27;;;;;;;-0.80;63.03;98939.36;1613880;87;21217;-90
2021/01/14 05:43:01;;;;;;;26.87;16.80;;;;;;;-0.82;63.17;98945.23;1625606;87;21761;-91
2021/01/14 05:45:29;;;;;;;30.67;20.20;;;;;;;-0.84;63.25;98940.64;1602660;88;21331;-90
2021/01/14 05:48:10;;;;;;;27.20;17.73;;;;;;;-0.85;63.34;98949.44;1632608;87;21174;-89
2021/01/14 05:50:47;;;;;;;24.07;16.93;;;;;;;-0.87;63.38;98954.00;1640855;86;21207;-90
2021/01/14 05:53:22;;;;;;;29.27;19.07;;;;;;;-0.87;63.41;98951.38;1642042;86;21249;-90
2021/01/14 05:55:53;;;;;;;27.40;19.00;;;;;;;-0.96;63.64;98956.20;1648395;85;21207;-93
2021/01/14 05:58:20;;;;;;;25.37;16.70;;;;;;;-1.03;63.86;98944.22;1634864;85;21681;-91
2021/01/14 06:04:51;;;;;;;27.20;17.43;;;;;;;-1.05;64.20;98956.13;1626300;85;21192;-92
2021/01/14 06:08:11;;;;;;;25.50;16.80;;;;;;;-1.08;64.44;98952.48;1631079;86;21352;-93
2021/01/14 06:10:55;;;;;;;23.70;14.17;;;;;;;-1.08;64.82;98950.36;1625152;87;21128;-89
2021/01/14 06:13:59;;;;;;;33.37;20.97;;;;;;;-1.07;64.89;98952.84;1650382;86;21234;-88
2021/01/14 06:16:45;;;;;;;30.40;21.03;;;;;;;-1.15;65.36;98952.73;1647642;86;21223;-90
2021/01/14 06:19:16;;;;;;;33.30;22.37;;;;;;;-1.21;65.53;98954.63;1619113;86;21148;-85
2021/01/14 06:21:49;;;;;;;41.63;26.00;;;;;;;-1.23;65.78;98950.85;1635614;86;21166;-89
2021/01/14 06:24:48;;;;;;;40.47;23.90;;;;;;;-1.22;65.84;98954.31;1623424;87;21176;-90
2021/01/14 06:27:30;;;;;;;35.57;22.30;;;;;;;-1.21;65.97;98952.02;1650611;86;21296;-92
2021/01/14 06:30:07;;;;;;;38.70;24.70;;;;;;;-1.89;65.89;98829.59;1644461;86;21230;-88
2021/01/14 06:32:38;;;;;;;42.47;26.53;;;;;;;-1.13;65.91;98940.36;1640250;85;21219;-88
2021/01/14 06:35:06;;;;;;;40.43;26.70;;;;;;;-1.11;66.09;98948.03;1645120;85;21220;-90
2021/01/14 06:37:37;;;;;;;45.63;28.10;;;;;;;-1.06;66.05;98947.93;1674981;84;21210;-91
2021/01/14 06:40:11;;;;;;;44.50;28.50;;;;;;;-1.04;65.96;98949.91;1673756;80;21142;-85
2021/01/14 06:42:48;;;;;;;43.00;26.40;;;;;;;-1.01;66.03;98948.31;1641672;81;21276;31
2021/01/14 06:45:50;;;;;;;46.67;30.83;;;;;;;-1.01;66.15;98944.89;1571725;86;21235;-93
2021/01/14 06:48:22;;;;;;;48.93;32.77;;;;;;;-0.97;66.07;98951.46;1568913;86;21221;-91
2021/01/14 06:50:49;;;;;;;46.97;29.47;;;;;;;-0.96;66.19;98947.05;1604187;86;21190;-96
2021/01/14 06:53:26;;;;;;;43.70;28.80;;;;;;;-0.88;66.06;98951.06;1595198;86;21148;-92
2021/01/14 06:56:18;;;;;;;44.17;27.60;;;;;;;-0.87;66.09;98955.31;1595757;86;21179;-92
2021/01/14 06:58:53;;;;;;;39.83;25.53;;;;;;;-0.94;66.18;98949.02;1563492;89;21204;-94
2021/01/14 07:02:06;;;;;;;34.67;22.37;;;;;;;-0.96;66.25;98956.20;1572884;89;21172;-94
2021/01/14 07:05:08;;;;;;;35.98;22.37;;;;;;;-0.96;66.43;98956.20;1577458;87;21163;-93
2021/01/14 07:07:52;;;;;;;41.40;26.93;;;;;;;-0.92;66.54;98957.54;1609215;88;21215;-95
2021/01/14 07:10:22;;;;;;;35.13;22.70;;;;;;;-0.91;66.48;98960.51;1614129;87;21334;-95
2021/01/14 07:13:01;;;;;;;38.93;25.33;;;;;;;-0.90;66.54;98966.91;1583969;88;21439;-93
2021/01/14 07:15:35;;;;;;;34.90;24.23;;;;;;;-0.83;66.42;98967.96;1622606;87;21330;-96
2021/01/14 07:18:49;;;;;;;40.48;25.62;;;;;;;-0.79;66.45;98971.92;1612109;86;21174;-94
2021/01/14 07:21:25;;;;;;;41.97;28.03;;;;;;;-0.73;66.17;98978.35;1602848;88;21203;-95
2021/01/14 07:24:05;;;;;;;41.50;25.77;;;;;;;-0.71;66.02;98976.41;1594755;88;21560;-93
2021/01/14 07:26:58;;;;;;;39.37;26.00;;;;;;;-0.73;66.07;98969.69;1594150;89;21700;-94
2021/01/14 07:29:31;;;;;;;55.03;36.60;;;;;;;-0.79;66.64;98976.34;1602998;87;21208;-93
2021/01/14 07:32:57;;;;;;;46.23;29.30;;;;;;;-0.85;66.69;98971.22;1586238;85;21289;-94
2021/01/14 07:35:46;;;;;;;44.17;29.50;;;;;;;-0.89;66.87;98975.56;1620274;85;21191;-94
2021/01/14 07:38:57;;;;;;;47.80;31.73;;;;;;;-0.88;67.12;98984.58;1618453;86;21153;-93
2021/01/14 07:42:05;;;;;;;50.83;32.00;;;;;;;-0.81;67.17;98975.63;1605283;86;21289;-95
2021/01/14 07:48:24;;;;;;;58.30;35.27;;;;;;;-0.71;67.29;98971.17;1693000;79;21267;-95
2021/01/14 07:51:04;;;;;;;53.07;34.00;;;;;;;-0.69;67.46;98982.31;1658746;85;21264;-96
2021/01/14 07:53:47;;;;;;;56.63;35.87;;;;;;;-0.62;67.41;98987.28;1687049;84;21345;-95
2021/01/14 07:56:36;;;;;;;65.50;40.43;;;;;;;-0.56;67.43;98985.05;1678163;85;21128;-94
2021/01/14 07:59:34;;;;;;;66.67;40.00;;;;;;;-0.59;67.30;98997.44;1677465;83;21154;-93
2021/01/14 08:03:27;;;;;;;;;;;;;;;;;;;;;
2021/01/14 08:06:45;;;;;;;56.80;34.87;;;;;;;-0.59;67.33;98996.63;1654154;83;21113;-94
2021/01/14 08:09:52;;;;;;;55.10;33.73;;;;;;;-0.65;67.42;98994.12;1675452;80;21193;-95
2021/01/14 08:13:06;;;;;;;52.60;32.17;;;;;;;-0.70;67.39;99003.39;1684667;85;21127;-95
2021/01/14 08:20:20;;;;;;;;;;;;;;;;;;;;;
2021/01/14 08:23:32;;;;;;;44.97;29.50;;;;;;;-0.88;68.95;99009.43;1672380;80;21248;-93
2021/01/14 08:27:02;;;;;;;40.60;27.93;;;;;;;-1.02;68.92;99016.00;1687613;79;21137;-96
2021/01/14 08:30:28;;;;;;;45.70;29.40;;;;;;;-1.10;69.10;99010.66;1686279;85;21310;-96
2021/01/14 08:40:26;;;;;;;39.70;26.40;;;;;;;-1.02;69.48;99006.00;1642625;83;21374;-94
2021/01/14 08:47:09;;;;;;;43.53;28.63;;;;;;;-1.06;69.69;99009.39;1636998;83;21178;-95
2021/01/14 08:50:16;;;;;;;37.50;23.67;;;;;;;-1.04;69.82;99009.25;1651480;83;21067;-96
2021/01/14 08:53:45;;;;;;;35.97;24.20;;;;;;;-1.04;70.24;99011.86;1655934;84;21197;-95
2021/01/14 08:57:03;;;;;;;46.47;28.87;;;;;;;-1.09;70.03;98998.39;1634717;85;21154;-93
2021/01/14 09:00:26;;;;;;;44.60;27.40;;;;;;;-1.03;70.28;99010.91;1652126;85;21280;-95
2021/01/14 09:03:47;;;;;;;37.77;24.23;;;;;;;-0.97;70.03;99004.27;1648116;84;21323;-96
2021/01/14 09:07:23;;;;;;;40.77;26.43;;;;;;;-0.90;70.06;99000.91;1666340;83;21402;-95
2021/01/14 09:10:52;;;;;;;39.80;25.17;;;;;;;-0.82;70.20;99006.22;1640241;85;21259;-94
2021/01/14 09:36:09;;;;;;;37.87;23.90;;;;;;;-0.38;68.58;98987.15;1735811;78;21018;-93
2021/01/14 09:45:45;;;;;;;37.30;24.57;;;;;;;-0.35;68.10;98988.16;1682985;82;21283;-91
2021/01/14 09:48:36;;;;;;;37.90;25.17;;;;;;;-0.38;68.28;98993.69;1674113;83;21285;-94
2021/01/14 09:51:39;;;;;;;36.00;26.13;;;;;;;-0.37;68.44;98984.88;1675746;84;21148;-93
2021/01/14 09:54:54;;;;;;;38.60;23.47;;;;;;;-0.36;68.44;98985.69;1697811;82;21461;-96
2021/01/14 09:57:52;;;;;;;34.00;20.83;;;;;;;-0.44;68.63;98985.95;1695535;83;21157;-95
2021/01/14 10:01:04;;;;;;;42.63;27.30;;;;;;;-0.48;69.06;98989.04;1704137;84;21623;-94
2021/01/14 10:04:17;;;;;;;42.37;25.97;;;;;;;-0.48;69.31;98989.04;1698887;81;21339;-94
2021/01/14 10:10:58;;;;;;;36.80;23.97;;;;;;;-0.44;69.41;98977.28;1665199;86;21163;-95
2021/01/14 10:17:58;;;;;;;35.80;24.13;;;;;;;-0.47;69.39;98977.11;1639414;85;21135;-96
2021/01/14 10:21:14;;;;;;;34.43;24.73;;;;;;;-0.49;69.58;98971.67;1653385;85;21331;-92
2021/01/14 10:24:29;;;;;;;36.40;22.57;;;;;;;-0.49;69.83;98971.67;1614798;87;21186;-94
2021/01/14 10:28:07;;;;;;;35.40;23.20;;;;;;;-0.43;69.79;98973.71;1659392;84;21171;-96
2021/01/14 10:31:44;;;;;;;35.03;22.03;;;;;;;-0.49;69.69;98971.67;1641508;86;21208;-96
2021/01/14 10:34:50;;;;;;;36.03;24.03;;;;;;;-0.52;70.00;98976.73;1642503;86;21178;-96
2021/01/14 10:37:49;;;;;;;33.07;21.90;;;;;;;-0.51;69.97;98961.84;1637627;86;21180;-94
2021/01/14 10:40:46;;;;;;;34.87;22.40;;;;;;;-0.52;69.97;98961.52;1645343;86;21200;-93
2021/01/14 10:43:56;;;;;;;34.87;23.83;;;;;;;-0.57;70.12;98965.07;1606730;86;21262;-94
2021/01/14 10:54:16;;;;;;;35.03;22.73;;;;;;;-0.55;70.19;98946.11;1646969;83;21152;-93
2021/01/14 11:03:52;;;;;;;38.17;24.67;;;;;;;-0.65;70.39;98945.70;1648727;83;21113;-88
2021/01/14 11:09:54;;;;;;;40.70;24.50;;;;;;;-0.53;70.22;98938.92;1638104;85;21129;-88
2021/01/14 11:13:13;;;;;;;40.43;24.43;;;;;;;-0.51;70.22;98940.91;1652931;83;21085;-88
2021/01/14 11:16:06;;;;;;;35.97;23.30;;;;;;;-0.51;70.15;98939.13;1622860;86;21141;-88
2021/01/14 11:18:56;;;;;;;40.87;24.20;;;;;;;-0.46;70.19;98934.73;1606168;87;21214;-86
2021/01/14 11:21:33;;;;;;;37.87;26.10;;;;;;;-0.45;70.20;98939.02;1623987;86;21205;-90
2021/01/14 11:24:08;;;;;;;34.17;23.83;;;;;;;-0.41;70.08;98929.38;1588551;89;21198;-88
2021/01/14 11:26:43;;;;;;;33.20;21.97;;;;;;;-0.41;70.02;98929.88;1581605;88;21210;-85
2021/01/14 11:29:10;;;;;;;40.80;26.37;;;;;;;-0.44;69.82;98927.55;1634326;86;21282;-85
2021/01/14 11:31:37;;;;;;;37.23;24.20;;;;;;;-0.51;70.19;98930.44;1656849;86;21180;-89
2021/01/14 11:34:06;;;;;;;37.53;23.97;;;;;;;-0.53;70.35;98925.34;1606745;88;21168;-86
2021/01/14 11:37:01;;;;;;;36.27;24.47;;;;;;;-0.50;70.36;98931.59;1605413;86;21101;-88
2021/01/14 11:39:30;;;;;;;39.63;26.57;;;;;;;-0.50;70.28;98926.86;1591669;86;21149;-86
2021/01/14 11:42:02;;;;;;;38.93;26.13;;;;;;;-0.46;70.24;98927.70;1595810;87;21164;-88
2021/01/14 11:44:33;;;;;;;32.77;22.53;;;;;;;-0.46;70.04;98934.23;1614447;85;21248;-90
2021/01/14 11:47:08;;;;;;;36.63;23.07;;;;;;;-0.47;69.92;98929.15;1577793;89;21129;-93
2021/01/14 11:49:35;;;;;;;39.67;25.60;;;;;;;-0.53;70.20;98935.81;1596581;88;21283;-89
2021/01/14 11:52:04;;;;;;;35.73;24.63;;;;;;;-0.57;70.15;98936.28;1579545;88;21221;-87
2021/01/14 11:54:34;;;;;;;39.37;24.90;;;;;;;-0.60;70.13;98931.69;1612114;88;21191;-88
2021/01/14 11:57:10;;;;;;;36.43;24.60;;;;;;;-0.65;70.34;98929.19;1604576;88;21244;-91
2021/01/14 11:59:40;;;;;;;37.17;25.13;;;;;;;-0.66;70.49;98925.75;1617460;88;21162;-89
2021/01/14 12:02:10;;;;;;;38.10;25.57;;;;;;;-0.67;70.52;98934.56;1579052;89;21172;-87
2021/01/14 12:04:39;;;;;;;37.53;25.53;;;;;;;-0.60;70.36;98927.77;1581349;89;21165;-89
2021/01/14 12:07:07;;;;;;;42.63;29.03;;;;;;;-0.62;70.29;98928.89;1635179;86;21032;-87
2021/01/14 12:09:49;;;;;;;44.63;29.67;;;;;;;-0.51;70.30;98921.27;1839372;77;24868;-88
2021/01/14 12:12:20;;;;;;;40.97;27.77;;;;;;;-0.51;70.38;98927.81;1820429;78;21304;-89
2021/01/14 12:14:51;;;;;;;41.17;28.67;;;;;;;-0.47;70.22;98928.69;1815276;78;21160;-88
2021/01/14 12:17:22;;;;;;;48.60;28.93;;;;;;;-0.46;70.15;98922.95;1804487;78;21169;-90
2021/01/14 12:19:50;;;;;;;45.47;30.27;;;;;;;-0.42;70.00;98932.14;1751478;79;21150;-88
2021/01/14 12:22:17;;;;;;;41.37;28.23;;;;;;;-0.46;70.08;98933.42;1793354;78;21200;-89
2021/01/14 12:24:47;;;;;;;39.43;27.57;;;;;;;-0.45;69.92;98929.35;1794307;78;21308;-88
2021/01/14 12:27:14;;;;;;;42.50;28.43;;;;;;;-0.48;70.24;98925.72;1791020;79;21154;-88
2021/01/14 12:29:42;;;;;;;40.13;28.93;;;;;;;-0.74;70.16;98878.57;1777589;80;21327;-91
2021/01/14 12:32:09;;;;;;;39.30;28.53;;;;;;;-0.47;70.45;98930.46;1771932;78;21161;-87
2021/01/14 12:34:40;;;;;;;42.23;28.23;;;;;;;-0.42;70.49;98929.52;1789283;80;21175;-89
2021/01/14 12:37:12;;;;;;;40.77;26.77;;;;;;;-0.43;70.73;98933.13;1736186;81;21619;-87
2021/01/14 12:39:39;;;;;;;42.43;28.93;;;;;;;-0.36;70.78;98932.84;1729009;81;21176;-86
2021/01/14 12:42:10;;;;;;;45.73;30.87;;;;;;;-0.37;70.82;98923.84;1700307;83;21273;-86
2021/01/14 12:44:43;;;;;;;39.67;27.63;;;;;;;-0.33;70.71;98927.30;1687634;84;21187;-94
2021/01/14 12:47:13;;;;;;;43.10;28.43;;;;;;;-0.34;70.81;98928.30;1667243;85;21185;-92
2021/01/14 12:49:46;;;;;;;43.00;28.87;;;;;;;-0.32;70.68;98932.89;1691151;83;21188;-93
2021/01/14 13:03:12;;;;;;;32.03;21.20;;;;;;;-0.48;71.14;98930.14;1774040;74;959221;-90
2021/01/14 13:05:46;;;;;;;44.03;27.70;;;;;;;-0.57;71.54;98942.33;1697094;82;21116;-91
2021/01/14 13:08:15;;;;;;;43.73;30.63;;;;;;;-0.59;71.59;98944.28;1682456;83;21362;-91
2021/01/14 13:10:44;;;;;;;43.97;28.53;;;;;;;-0.57;71.73;98936.28;1671770;84;21222;-93
2021/01/14 13:13:11;;;;;;;45.73;30.63;;;;;;;-0.60;71.84;98935.61;1676549;84;21159;-91
2021/01/14 13:15:45;;;;;;;42.77;30.57;;;;;;;-0.56;71.84;98937.44;1679403;84;21191;-92
2021/01/14 13:18:20;;;;;;;44.13;29.30;;;;;;;-0.55;72.01;98944.80;1668153;84;21190;-88
2021/01/14 13:21:09;;;;;;;43.50;29.90;;;;;;;-0.49;71.86;98940.27;1653853;84;21199;-91
2021/01/14 13:23:37;;;;;;;42.33;28.87;;;;;;;-0.49;72.01;98938.95;1659912;85;21224;-89
2021/01/14 13:26:12;;;;;;;45.87;31.07;;;;;;;-0.44;72.01;98933.59;1663887;84;21495;-92
2021/01/14 13:28:41;;;;;;;46.27;30.77;;;;;;;-0.46;71.95;98943.41;1664064;85;21701;-94
2021/01/14 13:31:10;;;;;;;47.53;29.73;;;;;;;-0.42;71.81;98944.73;1665895;84;21177;-92
2021/01/14 13:33:44;;;;;;;38.53;26.70;;;;;;;-0.43;71.61;98943.60;1633448;86;21189;-91
2021/01/14 13:36:15;;;;;;;43.30;27.70;;;;;;;-0.42;71.49;98941.30;1683479;83;21058;-92
2021/01/14 13:38:45;;;;;;;48.13;31.00;;;;;;;-0.44;71.41;98936.71;1684726;83;21234;-93
2021/01/14 13:42:24;;;;;;;40.23;28.40;;;;;;;-0.42;71.50;98935.57;1847755;76;23692;-91
2021/01/14 13:44:54;;;;;;;45.63;28.13;;;;;;;-0.42;71.48;98937.38;1815003;77;21313;-93
2021/01/14 13:47:23;;;;;;;44.77;30.00;;;;;;;-0.49;71.62;98941.11;1799167;78;21309;-91
2021/01/14 13:49:51;;;;;;;43.00;29.57;;;;;;;-0.47;71.90;98944.86;1781508;80;21180;-92
2021/01/14 13:52:30;;;;;;;45.00;29.87;;;;;;;-0.51;71.88;98947.45;1808657;78;21173;-93